Time;durP1;ratioP1;P1;durP2;ratioP2;P2;SDS_P1;SDS_P2;PMS_P1;PMS_P2;Temp;Humidity;BMP_temperature;BMP_pressure;BME280_temperature;BME280_humidity;BME280_pressure;Samples;Min_cycle;Max_cycle;Signal;HPM_P1;HPM_P2
2022/03/17 06:11:25;;;;;;;;;10.75;10.00;;;;;9.04;69.74;101886.72;4937197;28;45279;-57
2022/03/17 06:13:52;;;;;;;;;12.00;10.50;;;;;9.03;69.33;101892.84;4952791;28;45427;-60
2022/03/17 06:16:20;;;;;;;;;10.00;9.50;;;;;8.98;69.76;101898.13;4937560;28;45280;-62
2022/03/17 06:18:46;;;;;;;;;7.00;5.25;;;;;8.96;69.31;101902.53;4951819;28;46467;-60
2022/03/17 06:21:11;;;;;;;;;7.00;6.00;;;;;8.95;69.16;101905.19;4937726;28;45302;-61
2022/03/17 06:23:37;;;;;;;;;8.75;8.75;;;;;8.93;69.03;101907.81;4937988;28;45222;-63
2022/03/17 06:26:02;;;;;;;;;10.00;10.00;;;;;8.94;69.02;101913.97;4941276;28;45608;-65
2022/03/17 06:28:27;;;;;;;;;11.25;10.00;;;;;8.94;68.90;101916.59;4939015;28;45280;-59
2022/03/17 06:30:54;;;;;;;;;12.50;10.50;;;;;8.89;68.93;101922.75;4937680;28;45385;-65
2022/03/17 06:33:19;;;;;;;;;9.00;8.50;;;;;8.89;68.70;101932.38;4937490;28;45291;-62
2022/03/17 06:35:45;;;;;;;;;9.50;7.25;;;;;8.88;68.45;101923.63;4937550;28;45280;-62
2022/03/17 06:38:10;;;;;;;;;12.25;10.25;;;;;8.85;68.59;101936.78;4937263;28;45254;-64
2022/03/17 06:40:37;;;;;;;;;9.50;8.00;;;;;8.82;68.33;101944.69;4937432;28;45236;-60
2022/03/17 06:43:03;;;;;;;;;10.25;9.25;;;;;8.80;68.21;101950.84;4937678;28;45418;-63
2022/03/17 06:45:28;;;;;;;;;10.00;9.50;;;;;8.81;68.17;101966.56;4953658;28;45361;-61
2022/03/17 06:47:57;;;;;;;;;8.25;8.25;;;;;8.79;68.15;101965.72;4939172;28;45793;-61
2022/03/17 06:50:23;;;;;;;;;8.00;7.75;;;;;8.81;68.34;101971.81;4938610;28;45276;-64
2022/03/17 06:52:52;;;;;;;;;9.00;9.00;;;;;8.87;67.91;101977.00;4938083;28;45177;-62
2022/03/17 06:55:19;;;;;;;;;9.25;7.50;;;;;8.89;67.94;101977.84;4971165;28;45570;-58
2022/03/17 06:57:44;;;;;;;;;8.75;7.00;;;;;8.93;66.90;101990.94;4937055;28;46503;-55
2022/03/17 07:00:13;;;;;;;;;11.25;9.75;;;;;8.87;65.90;101984.88;4968227;28;46084;-59
2022/03/17 07:02:39;;;;;;;;;10.00;8.00;;;;;8.88;65.99;101990.97;4968707;28;45339;-59
2022/03/17 07:05:05;;;;;;;;;7.25;7.25;;;;;8.90;66.35;101992.72;4937693;28;45559;-59
2022/03/17 07:07:31;;;;;;;;;9.00;6.75;;;;;8.90;65.48;102000.59;4937427;28;47141;-59
2022/03/17 07:09:57;;;;;;;;;8.75;8.00;;;;;8.87;66.00;102008.50;4936441;28;45266;-59
2022/03/17 07:12:22;;;;;;;;;10.25;8.25;;;;;8.85;64.76;102005.03;4937764;28;45290;-63
2022/03/17 07:14:48;;;;;;;;;6.00;6.00;;;;;8.88;65.15;102015.47;4954129;28;45487;-63
2022/03/17 07:17:13;;;;;;;;;6.75;6.75;;;;;8.88;64.85;102019.84;4956696;28;47114;-64
2022/03/17 07:19:38;;;;;;;;;7.25;7.25;;;;;8.83;64.54;102012.03;4969916;28;45400;-63
2022/03/17 07:22:04;;;;;;;;;7.25;7.25;;;;;8.84;65.29;102026.91;4938787;28;45910;-63
2022/03/17 07:24:30;;;;;;;;;7.50;6.00;;;;;8.81;64.83;102034.81;4938139;28;45393;-63
2022/03/17 07:26:56;;;;;;;;;7.00;7.00;;;;;8.80;65.22;102033.06;4937085;28;45397;-63
2022/03/17 07:29:21;;;;;;;;;8.50;7.00;;;;;8.81;64.61;102033.91;4936532;28;45426;-61
2022/03/17 07:31:46;;;;;;;;;9.00;7.00;;;;;8.83;65.07;102048.78;4936587;28;45221;-60
2022/03/17 07:34:12;;;;;;;;;7.00;6.00;;;;;8.90;64.82;102053.06;4937264;28;45409;-64
2022/03/17 07:36:40;;;;;;;;;7.00;5.25;;;;;8.90;64.09;102034.72;4936917;28;46251;-61
2022/03/17 07:39:06;;;;;;;;;8.50;5.75;;;;;8.90;63.37;102050.44;4937682;28;45212;-61
2022/03/17 07:41:31;;;;;;;;;9.75;7.25;;;;;8.88;63.48;102051.34;4953587;28;45277;-62
2022/03/17 07:43:57;;;;;;;;;8.00;6.25;;;;;8.88;63.08;102060.09;4938305;28;45474;-63
2022/03/17 07:46:23;;;;;;;;;6.25;6.25;;;;;8.88;62.76;102067.97;4936605;28;46518;-62
2022/03/17 07:48:49;;;;;;;;;7.50;7.00;;;;;8.84;62.95;102055.75;4951498;28;46011;-57
2022/03/17 07:51:14;;;;;;;;;8.50;7.25;;;;;8.95;63.37;102067.91;4951563;28;45918;-61
2022/03/17 07:53:41;;;;;;;;;10.00;9.50;;;;;8.97;62.75;102053.88;4937278;28;45393;-61
2022/03/17 07:56:08;;;;;;;;;8.00;8.00;;;;;9.02;62.93;102065.22;4937114;28;45365;-63
2022/03/17 07:58:33;;;;;;;;;9.75;8.25;;;;;9.03;62.60;102072.22;4937988;28;45494;-63
2022/03/17 08:01:01;;;;;;;;;9.50;8.00;;;;;9.06;62.72;102087.03;4937961;28;45361;-61
2022/03/17 08:03:26;;;;;;;;;4.75;4.75;;;;;9.01;62.08;102089.72;4940294;28;45196;-65
2022/03/17 08:05:52;;;;;;;;;7.50;7.00;;;;;8.96;62.42;102094.13;4936244;28;45281;-70
2022/03/17 08:08:19;;;;;;;;;11.50;7.75;;;;;9.01;62.66;102091.47;4935741;28;45383;-60
2022/03/17 08:10:44;;;;;;;;;7.75;7.75;;;;;9.07;62.11;102094.03;4935711;28;45421;-57
2022/03/17 08:13:10;;;;;;;;;10.75;7.50;;;;;9.07;62.32;102099.28;4935903;28;45954;-63
2022/03/17 08:15:40;;;;;;;;;13.00;10.00;;;;;9.12;62.41;102099.25;4936234;28;45369;-57
2022/03/17 08:18:07;;;;;;;;;10.00;7.75;;;;;9.09;61.94;102104.53;4937279;28;45292;-68
2022/03/17 08:20:35;;;;;;;;;13.00;10.00;;;;;9.10;62.64;102115.00;4939325;28;45141;-61
2022/03/17 08:23:01;;;;;;;;;11.00;9.00;;;;;9.11;62.55;102114.13;4941906;28;45365;-66
2022/03/17 08:25:27;;;;;;;;;10.50;9.00;;;;;9.17;62.48;102121.94;4941500;28;45382;-68
2022/03/17 08:27:54;;;;;;;;;9.25;8.00;;;;;9.21;62.28;102123.66;4943576;28;45365;-68
2022/03/17 08:30:20;;;;;;;;;20.00;11.75;;;;;9.27;62.55;102137.59;4941716;28;45438;-67
2022/03/17 08:32:46;;;;;;;;;10.75;9.00;;;;;9.35;62.92;102135.78;4939669;28;45464;-69
2022/03/17 08:35:13;;;;;;;;;10.50;7.00;;;;;9.44;62.17;102126.94;4938848;28;45570;-68
2022/03/17 08:37:43;;;;;;;;;13.75;9.25;;;;;9.47;62.35;102138.25;4938901;28;45282;-68
2022/03/17 08:40:10;;;;;;;;;11.75;9.75;;;;;9.49;61.87;102139.13;4939070;28;45358;-72
2022/03/17 08:42:36;;;;;;;;;12.50;10.00;;;;;9.57;61.98;102151.34;4939344;28;45306;-74
2022/03/17 08:49:18;;;;;;;;;14.00;10.25;;;;;9.59;61.98;102150.41;4939554;28;45987;-67
2022/03/17 08:50:32;;;;;;;;;10.75;9.75;;;;;9.74;62.18;102162.53;4940373;28;45360;-65
2022/03/17 08:52:58;;;;;;;;;12.00;9.25;;;;;9.86;61.16;102179.03;4941168;28;45263;-67
2022/03/17 08:55:23;;;;;;;;;9.00;8.75;;;;;9.81;61.07;102171.19;4941170;28;45500;-65
2022/03/17 08:57:49;;;;;;;;;12.75;10.50;;;;;9.84;61.44;102183.44;4940355;28;45310;-65
2022/03/17 09:00:15;;;;;;;;;10.75;10.00;;;;;9.88;61.39;102193.03;4940597;28;45392;-64
2022/03/17 09:02:44;;;;;;;;;11.00;9.50;;;;;9.96;61.01;102196.44;4939289;28;45428;-67
2022/03/17 09:05:10;;;;;;;;;13.25;10.50;;;;;9.95;60.72;102194.69;4938445;28;47128;-64
2022/03/17 09:07:35;;;;;;;;;13.25;9.50;;;;;9.93;61.00;102188.59;4953682;28;45320;-66
2022/03/17 09:10:01;;;;;;;;;9.50;8.50;;;;;10.03;60.90;102202.47;4938322;28;45275;-66
2022/03/17 09:12:29;;;;;;;;;12.25;12.25;;;;;10.01;60.85;102193.75;4941085;28;45255;-67
2022/03/17 09:14:55;;;;;;;;;9.75;7.75;;;;;10.14;60.29;102200.63;4942372;28;47080;-67
2022/03/17 09:17:21;;;;;;;;;11.00;11.00;;;;;10.11;60.34;102203.28;4940121;28;45389;-64
2022/03/17 09:19:47;;;;;;;;;13.75;12.75;;;;;10.06;60.49;102198.06;4953740;28;45309;-66
2022/03/17 09:22:13;;;;;;;;;9.75;9.75;;;;;10.18;60.85;102220.72;4937830;28;45662;-66
2022/03/17 09:24:38;;;;;;;;;14.75;11.50;;;;;10.22;60.37;102208.41;4939491;28;46279;-65
2022/03/17 09:27:05;;;;;;;;;12.25;9.75;;;;;10.25;60.12;102204.88;4939743;28;45912;-65
2022/03/17 09:29:31;;;;;;;;;12.25;11.75;;;;;10.29;59.93;102217.94;4970651;28;45331;-66
2022/03/17 09:31:58;;;;;;;;;13.75;12.75;;;;;10.31;60.65;102212.69;4939577;28;45208;-66
2022/03/17 09:34:24;;;;;;;;;15.00;11.25;;;;;10.44;60.62;102213.41;4939712;28;47025;-66
2022/03/17 09:36:49;;;;;;;;;15.25;11.00;;;;;10.66;58.52;102221.88;4938207;28;45429;-67
2022/03/17 09:41:59;;;;;;;;;13.75;12.50;;;;;10.71;58.18;102241.09;4939429;28;45449;-66
2022/03/17 09:44:24;;;;;;;;;14.00;12.25;;;;;10.72;59.10;102234.09;4938227;28;45850;-67
2022/03/17 09:46:52;;;;;;;;;16.00;13.25;;;;;10.80;58.03;102226.97;4938131;28;45434;-66
2022/03/17 09:49:19;;;;;;;;;13.00;10.75;;;;;10.74;57.74;102232.31;4938286;28;45317;-67
2022/03/17 09:51:45;;;;;;;;;13.25;9.75;;;;;10.72;58.08;102247.25;4938159;28;45668;-64
2022/03/17 09:54:11;;;;;;;;;16.50;12.25;;;;;10.71;58.63;102238.47;4938096;28;45602;-67
2022/03/17 09:56:36;;;;;;;;;12.75;11.50;;;;;10.78;57.37;102234.00;4937931;28;45314;-65
2022/03/17 09:59:02;;;;;;;;;12.50;12.50;;;;;10.81;57.64;102247.97;4940266;28;45305;-68
2022/03/17 10:01:30;;;;;;;;;13.75;10.50;;;;;10.87;57.50;102249.66;4938678;28;45615;-68
2022/03/17 10:04:00;;;;;;;;;12.00;11.25;;;;;10.91;57.29;102245.22;4939414;28;45947;-67
2022/03/17 10:06:26;;;;;;;;;15.75;11.50;;;;;10.90;57.21;102265.41;4939370;28;45299;-66
2022/03/17 10:08:54;;;;;;;;;10.00;9.25;;;;;10.86;57.26;102252.31;4938201;28;45407;-65
2022/03/17 10:11:30;;;;;;;;;13.50;11.00;;;;;10.91;57.21;102255.75;4938377;28;45414;-65
2022/03/17 10:13:57;;;;;;;;;13.75;10.50;;;;;10.93;57.22;102257.47;4952748;28;48044;-65
2022/03/17 10:16:26;;;;;;;;;12.75;11.75;;;;;10.97;56.36;102255.66;4938037;28;45477;-65
2022/03/17 10:19:02;;;;;;;;;13.50;12.00;;;;;10.93;56.39;102259.22;4938738;28;45392;-66
2022/03/17 10:21:28;;;;;;;;;11.75;11.75;;;;;10.98;56.91;102270.56;4938675;28;45360;-66
2022/03/17 10:24:01;;;;;;;;;19.25;12.25;;;;;11.04;56.76;102274.88;4938514;28;46247;-67
2022/03/17 10:26:37;;;;;;;;;16.50;13.00;;;;;11.10;56.19;102269.50;4939723;28;45361;-64
2022/03/17 10:29:12;;;;;;;;;20.25;16.50;;;;;11.24;56.74;102277.22;4940236;28;45367;-66
2022/03/17 10:31:59;;;;;;;;;12.00;12.00;;;;;11.29;56.26;102275.38;4942049;28;45278;-62
2022/03/17 10:34:29;;;;;;;;;14.00;10.75;;;;;11.18;55.60;102287.84;4939096;28;45341;-66
2022/03/17 10:37:09;;;;;;;;;14.75;12.25;;;;;11.14;55.89;102288.78;4937493;28;45286;-67
2022/03/17 10:39:42;;;;;;;;;10.25;8.50;;;;;11.08;55.57;102290.59;4936288;28;45327;-66
2022/03/17 10:42:14;;;;;;;;;14.25;10.75;;;;;11.08;55.86;102295.00;4937953;28;45371;-62
2022/03/17 10:44:41;;;;;;;;;12.25;10.50;;;;;11.15;55.46;102299.28;4938516;28;46109;-63
2022/03/17 10:47:09;;;;;;;;;16.25;16.00;;;;;11.21;56.02;102300.97;4939547;28;45267;-67
2022/03/17 10:49:34;;;;;;;;;11.25;8.50;;;;;11.26;55.20;102296.50;4952751;28;45404;-63
2022/03/17 10:51:59;;;;;;;;;12.75;12.50;;;;;11.28;55.42;102310.53;4938725;28;45626;-64
2022/03/17 10:54:25;;;;;;;;;12.25;11.75;;;;;11.30;55.30;102300.81;4938629;28;45511;-67
2022/03/17 10:57:02;;;;;;;;;11.75;10.00;;;;;11.33;55.64;102303.41;4937785;28;45333;-66
2022/03/17 10:59:50;;;;;;;;;12.50;11.50;;;;;11.40;55.50;102297.16;4968367;28;45341;-66
2022/03/17 11:02:21;;;;;;;;;17.25;11.75;;;;;11.54;55.34;102304.81;4937284;28;45229;-67
2022/03/17 11:04:47;;;;;;;;;17.25;14.25;;;;;11.50;54.87;102289.94;4939261;28;45495;-66
2022/03/17 11:07:14;;;;;;;;;14.75;13.00;;;;;11.66;54.28;102318.66;4953867;28;45588;-64
2022/03/17 11:09:45;;;;;;;;;14.00;12.75;;;;;11.69;54.80;102321.28;4937348;28;45350;-65
2022/03/17 11:12:12;;;;;;;;;13.75;10.75;;;;;11.79;54.14;102316.72;4937296;28;45511;-67
2022/03/17 11:14:50;;;;;;;;;13.50;12.75;;;;;11.84;54.31;102314.88;4939047;28;45476;-66
2022/03/17 11:17:37;;;;;;;;;15.25;15.25;;;;;11.94;54.42;102318.22;4939507;28;45313;-68
2022/03/17 11:20:09;;;;;;;;;13.00;12.75;;;;;12.04;53.96;102318.94;4937296;28;45248;-69
2022/03/17 11:22:35;;;;;;;;;15.75;13.75;;;;;12.01;53.39;102333.06;4937235;28;45365;-67
2022/03/17 11:25:32;;;;;;;;;12.25;9.50;;;;;12.01;53.68;102327.78;4937251;28;46384;-66
2022/03/17 11:28:00;;;;;;;;;12.50;11.50;;;;;11.98;52.76;102325.19;4932858;28;45472;-64
2022/03/17 11:30:49;;;;;;;;;13.25;8.75;;;;;11.92;53.27;102338.47;4938217;28;45411;-65
2022/03/17 11:33:43;;;;;;;;;17.25;13.00;;;;;11.82;53.03;102346.53;4968114;28;45545;-65
2022/03/17 11:36:08;;;;;;;;;13.00;11.75;;;;;11.67;52.92;102338.91;4936819;28;47061;-63
2022/03/17 11:38:38;;;;;;;;;12.00;10.00;;;;;11.59;53.46;102339.00;4936426;28;45321;-66
2022/03/17 11:41:13;;;;;;;;;14.50;14.50;;;;;11.63;54.43;102345.97;4936959;28;45251;-66
2022/03/17 11:43:39;;;;;;;;;18.50;12.00;;;;;11.73;54.17;102343.19;4937878;28;45672;-66
2022/03/17 11:46:18;;;;;;;;;14.50;12.75;;;;;11.80;53.70;102348.34;4936667;28;46866;-66
2022/03/17 11:48:45;;;;;;;;;14.00;11.75;;;;;11.81;53.94;102344.81;4937847;28;45448;-67
2022/03/17 11:51:13;;;;;;;;;16.50;16.00;;;;;11.75;53.81;102336.13;4937249;28;45212;-63
2022/03/17 11:54:01;;;;;;;;;17.00;14.75;;;;;11.77;53.61;102348.38;4937189;28;45167;-63
2022/03/17 11:56:47;;;;;;;;;21.75;14.50;;;;;11.78;53.69;102350.13;4939077;28;45418;-62
2022/03/17 11:59:16;;;;;;;;;35.00;30.25;;;;;11.89;54.27;102351.72;4939842;28;45447;-65
2022/03/17 12:01:46;;;;;;;;;30.00;26.00;;;;;11.94;53.72;102334.91;4940079;28;45424;-60
2022/03/17 12:04:30;;;;;;;;;26.75;17.50;;;;;12.11;53.27;102345.19;4955518;28;45591;-66
2022/03/17 12:07:10;;;;;;;;;18.50;18.25;;;;;12.16;53.41;102352.16;4939987;28;46108;-66
2022/03/17 12:09:37;;;;;;;;;18.25;15.50;;;;;12.17;52.95;102354.72;4939620;28;45354;-65
2022/03/17 12:12:26;;;;;;;;;11.50;9.50;;;;;12.17;53.26;102356.53;4939845;28;45212;-61
2022/03/17 12:14:52;;;;;;;;;16.75;14.00;;;;;12.11;53.25;102350.47;4940142;28;45330;-64
2022/03/17 12:17:21;;;;;;;;;14.25;12.25;;;;;12.04;52.53;102351.47;4941721;28;45431;-65
2022/03/17 12:19:51;;;;;;;;;14.50;13.75;;;;;12.08;53.00;102347.00;4940639;28;45316;-65
2022/03/17 12:22:32;;;;;;;;;14.50;12.00;;;;;11.96;51.64;102361.25;4940644;28;45414;-63
2022/03/17 12:25:13;;;;;;;;;13.50;13.25;;;;;11.89;53.06;102351.72;4940263;28;45225;-64
2022/03/17 12:27:40;;;;;;;;;16.25;13.25;;;;;11.90;52.62;102359.59;4939356;28;45299;-62
2022/03/17 12:30:16;;;;;;;;;19.50;13.00;;;;;11.88;52.21;102357.88;4941432;28;45318;-65
2022/03/17 12:32:47;;;;;;;;;16.00;15.25;;;;;11.84;53.26;102349.13;4939688;28;45255;-63
2022/03/17 12:35:13;;;;;;;;;17.50;12.25;;;;;11.95;52.96;102356.88;4939575;28;45425;-64
2022/03/17 12:37:41;;;;;;;;;15.75;14.50;;;;;12.00;53.34;102352.44;4939569;28;45559;-63
2022/03/17 12:40:18;;;;;;;;;17.00;13.50;;;;;12.03;52.30;102354.13;4939780;28;45328;-62
2022/03/17 12:42:46;;;;;;;;;13.75;13.00;;;;;12.11;53.33;102355.72;4942495;28;45287;-65
2022/03/17 12:45:14;;;;;;;;;14.75;12.25;;;;;12.10;52.17;102361.91;4941614;28;45434;-64
2022/03/17 12:47:50;;;;;;;;;14.25;14.25;;;;;12.05;52.55;102357.59;4940177;28;46156;-63
2022/03/17 12:50:19;;;;;;;;;17.00;15.50;;;;;12.08;52.24;102365.44;4941138;28;45226;-64
2022/03/17 12:52:47;;;;;;;;;19.50;14.50;;;;;12.10;52.41;102355.75;4940323;28;45453;-64
2022/03/17 12:55:15;;;;;;;;;17.75;14.50;;;;;12.16;52.63;102346.88;4941564;28;45293;-67
2022/03/17 12:57:41;;;;;;;;;15.50;14.00;;;;;12.30;52.39;102346.63;4938944;28;47907;-63
2022/03/17 13:00:10;;;;;;;;;16.75;14.00;;;;;12.30;52.12;102349.25;4939198;28;45275;-64
2022/03/17 13:02:36;;;;;;;;;15.75;14.50;;;;;12.31;52.22;102343.09;4941022;28;45285;-65
2022/03/17 13:07:48;;;;;;;;;18.00;18.00;;;;;12.24;51.37;102347.59;4938512;28;45360;-65
2022/03/17 13:10:24;;;;;;;;;22.25;17.25;;;;;12.29;52.47;102351.00;4939125;28;45293;-63
2022/03/17 13:15:34;;;;;;;;;19.00;18.00;;;;;12.40;52.13;102359.59;4940395;28;45300;-67
2022/03/17 13:18:05;;;;;;;;;18.50;15.25;;;;;12.45;51.57;102356.88;4940391;28;45386;-67
2022/03/17 13:20:31;;;;;;;;;18.75;15.50;;;;;12.27;51.25;102351.06;4940073;28;45460;-67
2022/03/17 13:23:11;;;;;;;;;16.75;13.25;;;;;12.23;52.01;102359.94;4940938;28;45373;-67
2022/03/17 13:25:41;;;;;;;;;19.75;15.25;;;;;12.22;52.30;102360.81;4939656;28;45215;-67
2022/03/17 13:28:14;;;;;;;;;14.25;13.00;;;;;12.26;51.77;102356.34;4938403;28;46190;-65
2022/03/17 13:30:45;;;;;;;;;16.75;15.25;;;;;12.30;51.98;102362.44;4938314;28;45359;-66
2022/03/17 13:33:12;;;;;;;;;17.25;13.25;;;;;12.40;52.29;102358.72;4938902;28;45908;-66
2022/03/17 13:35:44;;;;;;;;;21.25;17.25;;;;;12.46;51.61;102358.63;4953162;28;45576;-65
2022/03/17 13:38:13;;;;;;;;;18.50;17.25;;;;;12.40;50.97;102358.72;4938418;28;45151;-63
2022/03/17 13:40:49;;;;;;;;;17.00;14.75;;;;;12.31;51.56;102358.91;4938990;28;45227;-63
2022/03/17 13:43:16;;;;;;;;;19.25;16.00;;;;;12.19;51.45;102358.22;4939718;28;45364;-66
2022/03/17 13:45:44;;;;;;;;;17.75;13.50;;;;;12.05;52.09;102361.13;4939050;28;45278;-66
2022/03/17 13:48:13;;;;;;;;;21.25;16.75;;;;;12.06;52.45;102360.22;4938966;28;46470;-65
2022/03/17 13:50:47;;;;;;;;;15.25;13.25;;;;;12.07;51.53;102369.00;4970711;28;45358;-62
2022/03/17 13:53:13;;;;;;;;;13.00;12.50;;;;;11.98;51.94;102367.38;4938153;28;45285;-63
2022/03/17 13:55:45;;;;;;;;;17.75;14.00;;;;;11.93;52.06;102370.06;4937985;28;45528;-61
2022/03/17 13:58:14;;;;;;;;;18.50;15.25;;;;;11.95;51.71;102373.56;4937695;28;45341;-63
2022/03/17 14:00:40;;;;;;;;;20.00;15.00;;;;;11.84;51.79;102368.47;4937716;28;45539;-65
2022/03/17 14:03:13;;;;;;;;;20.25;19.75;;;;;11.83;51.90;102366.75;4937553;28;45448;-65
2022/03/17 14:06:17;;;;;;;;;14.00;13.00;;;;;11.82;51.88;102364.13;4940273;28;45292;-68
2022/03/17 14:08:48;;;;;;;;;16.75;14.00;;;;;11.66;51.99;102367.00;4917459;28;46859;-65
2022/03/17 14:11:16;;;;;;;;;15.25;14.00;;;;;11.54;52.24;102367.19;4916603;28;45406;-66
2022/03/17 14:13:44;;;;;;;;;17.00;15.25;;;;;11.50;53.10;102366.38;4927619;28;45286;-63
2022/03/17 14:16:12;;;;;;;;;21.00;17.00;;;;;11.58;53.07;102378.56;4938724;28;45357;-65
2022/03/17 14:18:38;;;;;;;;;16.75;15.75;;;;;11.60;53.12;102379.41;4939754;28;45449;-67
2022/03/17 14:21:04;;;;;;;;;20.00;16.00;;;;;11.59;52.81;102377.66;4938547;28;45431;-65
2022/03/17 14:26:16;;;;;;;;;19.00;15.50;;;;;11.66;53.17;102380.19;4938014;28;45326;-63
2022/03/17 14:28:41;;;;;;;;;22.00;17.50;;;;;11.63;52.59;102376.72;4937494;28;46085;-64
2022/03/17 14:31:08;;;;;;;;;21.50;16.25;;;;;11.69;53.17;102376.66;4938266;28;45307;-65
2022/03/17 14:33:37;;;;;;;;;19.75;16.00;;;;;11.76;54.17;102382.66;4938266;28;45439;-66
2022/03/17 14:36:10;;;;;;;;;18.75;15.00;;;;;11.83;53.50;102382.56;4938848;28;45319;-62
2022/03/17 14:38:35;;;;;;;;;19.00;13.75;;;;;11.84;53.95;102386.06;4951974;28;46879;-61
2022/03/17 14:41:01;;;;;;;;;17.25;14.50;;;;;11.90;53.50;102377.19;4937057;28;45263;-64
2022/03/17 14:43:26;;;;;;;;;18.50;15.75;;;;;11.91;53.27;102371.88;4937305;28;45408;-65
2022/03/17 14:45:52;;;;;;;;;23.00;18.00;;;;;11.48;53.50;102318.09;4937759;28;45233;-61
2022/03/17 14:48:17;;;;;;;;;15.25;15.00;;;;;11.81;53.25;102387.00;4937417;28;46073;-67
2022/03/17 14:50:43;;;;;;;;;22.75;15.25;;;;;11.80;53.57;102385.25;4937527;28;45397;-63
2022/03/17 14:53:08;;;;;;;;;17.25;14.75;;;;;11.69;52.91;102381.91;4939017;28;45446;-67
2022/03/17 14:55:34;;;;;;;;;16.50;14.00;;;;;11.63;53.01;102396.06;4939155;28;45430;-62
2022/03/17 14:57:59;;;;;;;;;19.25;15.50;;;;;11.64;53.75;102394.28;4938960;28;46087;-65
2022/03/17 15:00:25;;;;;;;;;17.50;16.25;;;;;11.66;54.09;102387.22;4937176;28;45303;-65
2022/03/17 15:02:50;;;;;;;;;18.50;15.75;;;;;11.77;53.79;102392.31;4952264;28;45199;-61
2022/03/17 15:05:15;;;;;;;;;19.50;13.75;;;;;11.75;53.90;102392.38;4937834;28;45296;-65
2022/03/17 15:07:43;;;;;;;;;15.00;15.00;;;;;11.77;54.08;102397.59;4951455;28;45886;-65
2022/03/17 15:10:09;;;;;;;;;19.50;15.75;;;;;11.83;54.01;102389.59;4939493;28;45287;-62
2022/03/17 15:12:35;;;;;;;;;14.75;14.75;;;;;11.68;53.12;102362.59;4941311;28;45347;-65
2022/03/17 15:15:00;;;;;;;;;20.50;16.75;;;;;11.87;53.34;102395.69;4936804;28;45282;-66
2022/03/17 15:17:26;;;;;;;;;17.00;16.25;;;;;11.86;53.62;102388.69;4937469;28;45358;-63
2022/03/17 15:19:51;;;;;;;;;22.00;17.25;;;;;11.88;52.67;102397.44;4939763;28;45345;-68
2022/03/17 15:22:16;;;;;;;;;19.00;15.25;;;;;11.82;53.58;102404.56;4939526;28;45287;-65
2022/03/17 15:24:42;;;;;;;;;21.50;15.50;;;;;11.75;53.37;102405.53;4937601;28;45340;-65
2022/03/17 15:30:12;;;;;;;;;24.75;23.50;;;;;11.61;53.77;102408.38;4936162;28;45364;-57
2022/03/17 15:32:40;;;;;;;;;15.50;14.00;;;;;11.63;54.02;102406.59;4937024;28;45423;-66
2022/03/17 15:35:08;;;;;;;;;16.00;14.75;;;;;11.57;54.27;102411.97;4937320;28;45123;-64
2022/03/17 15:37:34;;;;;;;;;17.75;15.50;;;;;11.48;53.90;102427.91;4937732;28;46525;-65
2022/03/17 15:40:00;;;;;;;;;10.50;10.50;;;;;11.37;54.21;102420.16;4938236;28;45524;-66
2022/03/17 15:42:30;;;;;;;;;19.25;16.00;;;;;11.22;54.26;102413.34;4938990;28;45334;-61
2022/03/17 15:44:55;;;;;;;;;16.50;14.25;;;;;11.13;54.80;102411.69;4937305;28;45571;-65
2022/03/17 15:47:21;;;;;;;;;16.75;14.50;;;;;11.01;54.74;102417.13;4936723;28;46115;-66
2022/03/17 15:49:46;;;;;;;;;14.00;13.75;;;;;10.94;54.75;102424.22;4936333;28;45263;-66
2022/03/17 15:52:12;;;;;;;;;21.50;15.75;;;;;10.89;54.94;102421.66;4936802;28;45356;-66
2022/03/17 15:54:38;;;;;;;;;22.25;20.00;;;;;10.82;55.30;102419.97;4937107;28;45330;-65
2022/03/17 15:57:03;;;;;;;;;20.00;16.75;;;;;10.74;55.25;102416.56;4936089;28;46434;-64
2022/03/17 15:59:29;;;;;;;;;15.75;14.00;;;;;10.65;55.67;102426.31;4936111;28;45504;-66
2022/03/17 16:01:54;;;;;;;;;16.75;15.50;;;;;10.58;55.52;102421.09;4936366;28;45227;-64
2022/03/17 16:04:20;;;;;;;;;17.00;16.25;;;;;10.59;55.20;102428.13;4937770;28;45450;-66
2022/03/17 16:06:46;;;;;;;;;21.25;16.00;;;;;10.55;55.45;102434.31;4938173;28;46956;-66
2022/03/17 16:09:12;;;;;;;;;18.50;15.75;;;;;10.49;55.98;102424.69;4938701;28;45308;-66
2022/03/17 16:14:33;;;;;;;;;26.50;21.50;;;;;10.55;56.22;102429.91;4936422;28;45298;-68
2022/03/17 16:17:01;;;;;;;;;16.75;15.25;;;;;10.49;55.27;102425.59;4935500;28;46257;-69
2022/03/17 16:19:27;;;;;;;;;19.00;15.75;;;;;10.47;55.36;102440.50;4935667;28;45868;-66
2022/03/17 16:21:56;;;;;;;;;22.00;17.25;;;;;10.37;55.81;102433.56;4936048;28;45217;-68
2022/03/17 16:24:22;;;;;;;;;23.00;15.75;;;;;10.28;56.05;102444.19;4935095;28;45540;-68
2022/03/17 16:26:48;;;;;;;;;25.25;20.25;;;;;10.22;56.28;102445.97;4936160;28;46207;-66
2022/03/17 16:29:14;;;;;;;;;23.25;22.00;;;;;10.24;56.44;102453.84;4937451;28;45409;-67
2022/03/17 16:31:45;;;;;;;;;17.50;17.00;;;;;10.20;56.25;102450.38;4937527;28;45247;-65
2022/03/17 16:34:12;;;;;;;;;33.50;30.00;;;;;10.17;56.69;102450.41;4937045;28;45555;-65
2022/03/17 16:36:37;;;;;;;;;22.50;19.25;;;;;10.12;56.17;102449.56;4936278;28;45983;-63
2022/03/17 16:39:03;;;;;;;;;17.75;15.00;;;;;10.06;56.46;102466.25;4937073;28;45307;-66
2022/03/17 16:41:29;;;;;;;;;19.00;17.50;;;;;10.01;56.76;102472.41;4952622;28;45447;-66
2022/03/17 16:43:55;;;;;;;;;17.75;15.75;;;;;9.92;56.68;102462.84;4940203;28;45190;-64
2022/03/17 16:46:20;;;;;;;;;18.00;17.50;;;;;9.82;57.12;102458.56;4940289;28;45378;-61
2022/03/17 16:48:46;;;;;;;;;19.75;14.75;;;;;9.85;57.81;102467.28;4941140;28;45247;-65
2022/03/17 16:51:11;;;;;;;;;18.25;14.00;;;;;9.77;57.09;102469.97;4941620;28;45429;-65
2022/03/17 16:53:41;;;;;;;;;23.75;17.75;;;;;9.71;57.40;102480.53;4943753;28;45656;-64
2022/03/17 16:56:07;;;;;;;;;18.75;15.50;;;;;9.65;57.80;102473.53;4939169;28;45458;-61
2022/03/17 16:58:33;;;;;;;;;20.50;18.25;;;;;9.64;58.05;102469.16;4939378;28;45382;-61
2022/03/17 17:00:58;;;;;;;;;17.25;15.50;;;;;9.65;57.63;102472.69;4939647;28;45303;-60
2022/03/17 17:03:25;;;;;;;;;22.75;18.75;;;;;9.59;57.64;102470.94;4939343;28;45313;-63
2022/03/17 17:05:50;;;;;;;;;37.50;31.75;;;;;9.52;58.39;102468.34;4939608;28;46367;-60
2022/03/17 17:08:18;;;;;;;;;17.00;15.75;;;;;9.50;58.28;102473.63;4942855;28;45244;-63
2022/03/17 17:10:45;;;;;;;;;21.75;17.50;;;;;9.47;58.43;102476.28;4943269;28;45339;-63
2022/03/17 17:13:12;;;;;;;;;22.25;19.75;;;;;9.41;58.69;102487.66;4973197;28;45566;-64
2022/03/17 17:15:38;;;;;;;;;24.25;20.25;;;;;9.34;58.77;102492.09;4940762;28;46366;-64
2022/03/17 17:18:04;;;;;;;;;20.00;18.75;;;;;9.26;59.00;102472.88;4940689;28;45481;-64
2022/03/17 17:20:29;;;;;;;;;23.25;19.25;;;;;9.28;59.26;102497.38;4940378;28;45356;-65
2022/03/17 17:31:15;;;;;;;;;17.50;15.25;;;;;9.02;60.19;102500.97;4939051;28;45460;-59
2022/03/17 17:33:47;;;;;;;;;22.25;21.25;;;;;8.95;59.72;102487.84;4938696;28;45294;-64
2022/03/17 17:36:13;;;;;;;;;26.75;23.25;;;;;8.96;60.10;102492.22;4938725;28;45285;-60
2022/03/17 17:38:39;;;;;;;;;27.25;20.25;;;;;9.00;60.13;102500.06;4939109;28;45394;-64
2022/03/17 17:41:04;;;;;;;;;29.75;21.25;;;;;9.03;60.39;102513.22;4942167;28;45279;-60
2022/03/17 17:43:30;;;;;;;;;27.50;25.25;;;;;9.00;60.51;102497.44;4939467;28;45393;-60
2022/03/17 17:45:56;;;;;;;;;40.00;34.25;;;;;9.13;60.28;102527.16;4940216;28;45404;-59
2022/03/17 17:48:24;;;;;;;;;35.00;27.25;;;;;9.11;60.78;102526.28;4940750;28;45425;-59
2022/03/17 17:50:49;;;;;;;;;19.25;16.75;;;;;9.08;60.41;102530.69;4938694;28;45265;-63
2022/03/17 17:53:15;;;;;;;;;29.25;23.50;;;;;9.05;60.56;102527.19;4937382;28;45553;-63
2022/03/17 17:55:43;;;;;;;;;28.00;22.75;;;;;9.02;61.07;102532.47;4938044;28;45216;-64
2022/03/17 17:58:09;;;;;;;;;25.50;24.00;;;;;9.02;61.13;102540.34;4938258;28;45389;-60